Time;durP1;ratioP1;P1;durP2;ratioP2;P2;SDS_P1;SDS_P2;PMS_P1;PMS_P2;Temp;Humidity;BMP_temperature;BMP_pressure;BME280_temperature;BME280_humidity;BME280_pressure;Samples;Min_cycle;Max_cycle;Signal;HPM_P1;HPM_P2
2022/08/11 00:00:50;;;;;;;6.1;3.55;;;;;;;16.86;51.36719;95704.64;;;;
2022/08/11 00:01:51;;;;;;;6.1;3.55;;;;;;;16.86;51.36719;95704.64;;;;
2022/08/11 00:02:54;;;;;;;6.1;3.55;;;;;;;16.86;51.36719;95704.64;;;;
2022/08/11 00:03:55;;;;;;;6.1;3.55;;;;;;;16.86;51.36719;95704.64;;;;
2022/08/11 00:04:59;;;;;;;6.1;3.55;;;;;;;16.86;51.36719;95704.64;;;;
2022/08/11 00:06:05;;;;;;;6.1;3.55;;;;;;;16.86;51.36719;95704.64;;;;
2022/08/11 00:07:06;;;;;;;6.1;3.55;;;;;;;16.86;51.36719;95704.64;;;;
2022/08/11 00:08:08;;;;;;;6.1;3.55;;;;;;;16.86;51.36719;95704.64;;;;
2022/08/11 00:09:10;;;;;;;6.1;3.55;;;;;;;16.86;51.36719;95704.64;;;;
2022/08/11 00:10:15;;;;;;;6.1;3.55;;;;;;;16.86;51.36719;95704.64;;;;
2022/08/11 00:11:18;;;;;;;4.1;3.25;;;;;;;16.79;51.74316;95705.44;;;;
2022/08/11 00:12:20;;;;;;;4.1;3.25;;;;;;;16.79;51.74316;95705.44;;;;
2022/08/11 00:13:21;;;;;;;4.1;3.25;;;;;;;16.79;51.74316;95705.44;;;;
2022/08/11 00:14:31;;;;;;;4.1;3.25;;;;;;;16.79;51.74316;95705.44;;;;
2022/08/11 00:15:33;;;;;;;4.1;3.25;;;;;;;16.79;51.74316;95705.44;;;;
2022/08/11 00:16:41;;;;;;;4.1;3.25;;;;;;;16.79;51.74316;95705.44;;;;
2022/08/11 00:17:43;;;;;;;4.1;3.25;;;;;;;16.79;51.74316;95705.44;;;;
2022/08/11 00:18:44;;;;;;;4.1;3.25;;;;;;;16.79;51.74316;95705.44;;;;
2022/08/11 00:19:47;;;;;;;4.1;3.25;;;;;;;16.79;51.74316;95705.44;;;;
2022/08/11 00:20:48;;;;;;;4.1;3.25;;;;;;;16.79;51.74316;95705.44;;;;
2022/08/11 00:21:50;;;;;;;5.7;3.8;;;;;;;16.62;52.09766;95712.48;;;;
2022/08/11 00:22:53;;;;;;;5.7;3.8;;;;;;;16.62;52.09766;95712.48;;;;
2022/08/11 00:24:01;;;;;;;5.7;3.8;;;;;;;16.62;52.09766;95712.48;;;;
2022/08/11 00:25:02;;;;;;;5.7;3.8;;;;;;;16.62;52.09766;95712.48;;;;
2022/08/11 00:26:09;;;;;;;5.7;3.8;;;;;;;16.62;52.09766;95712.48;;;;
2022/08/11 00:27:10;;;;;;;5.7;3.8;;;;;;;16.62;52.09766;95712.48;;;;
2022/08/11 00:28:11;;;;;;;5.7;3.8;;;;;;;16.62;52.09766;95712.48;;;;
2022/08/11 00:29:29;;;;;;;5.7;3.8;;;;;;;16.62;52.09766;95712.48;;;;
2022/08/11 00:30:31;;;;;;;5.7;3.8;;;;;;;16.62;52.09766;95712.48;;;;
2022/08/11 00:31:38;;;;;;;5.7;3.8;;;;;;;16.62;52.09766;95712.48;;;;
2022/08/11 00:32:44;;;;;;;4.6;3.65;;;;;;;16.55;52.57227;95719.81;;;;
2022/08/11 00:33:54;;;;;;;4.6;3.65;;;;;;;16.55;52.57227;95719.81;;;;
2022/08/11 00:34:56;;;;;;;4.6;3.65;;;;;;;16.55;52.57227;95719.81;;;;
2022/08/11 00:35:57;;;;;;;4.6;3.65;;;;;;;16.55;52.57227;95719.81;;;;
2022/08/11 00:37:02;;;;;;;4.6;3.65;;;;;;;16.55;52.57227;95719.81;;;;
2022/08/11 00:38:06;;;;;;;4.6;3.65;;;;;;;16.55;52.57227;95719.81;;;;
2022/08/11 00:39:07;;;;;;;4.6;3.65;;;;;;;16.55;52.57227;95719.81;;;;
2022/08/11 00:40:09;;;;;;;4.6;3.65;;;;;;;16.55;52.57227;95719.81;;;;
2022/08/11 00:41:22;;;;;;;4.6;3.65;;;;;;;16.55;52.57227;95719.81;;;;
2022/08/11 00:42:33;;;;;;;4.6;3.65;;;;;;;16.55;52.57227;95719.81;;;;
2022/08/11 00:43:50;;;;;;;4.55;3.6;;;;;;;16.39;52.91504;95724.54;;;;
2022/08/11 00:45:13;;;;;;;4.55;3.6;;;;;;;16.39;52.91504;95724.54;;;;
2022/08/11 00:46:24;;;;;;;4.55;3.6;;;;;;;16.39;52.91504;95724.54;;;;
2022/08/11 00:47:39;;;;;;;4.55;3.6;;;;;;;16.39;52.91504;95724.54;;;;
2022/08/11 00:48:54;;;;;;;4.55;3.6;;;;;;;16.39;52.91504;95724.54;;;;
2022/08/11 00:50:09;;;;;;;4.55;3.6;;;;;;;16.39;52.91504;95724.54;;;;
2022/08/11 00:51:23;;;;;;;4.55;3.6;;;;;;;16.39;52.91504;95724.54;;;;
2022/08/11 00:52:40;;;;;;;4.55;3.6;;;;;;;16.39;52.91504;95724.54;;;;
2022/08/11 00:53:58;;;;;;;4.750001;3.7;;;;;;;16.26;53.37109;95724.02;;;;
2022/08/11 00:55:07;;;;;;;4.750001;3.7;;;;;;;16.26;53.37109;95724.02;;;;
2022/08/11 01:00:44;;;;;;;4.750001;3.7;;;;;;;16.26;53.37109;95724.02;;;;
2022/08/11 01:02:04;;;;;;;4.750001;3.7;;;;;;;16.26;53.37109;95724.02;;;;
2022/08/11 01:03:16;;;;;;;4.750001;3.7;;;;;;;16.26;53.37109;95724.02;;;;
2022/08/11 01:04:31;;;;;;;3.6;3.3;;;;;;;16.02;53.8584;95715.64;;;;
2022/08/11 01:10:05;;;;;;;3.6;3.3;;;;;;;16.02;53.8584;95715.64;;;;
2022/08/11 01:11:26;;;;;;;3.6;3.3;;;;;;;16.02;53.8584;95715.64;;;;
2022/08/11 01:12:52;;;;;;;3.6;3.3;;;;;;;16.02;53.8584;95715.64;;;;
2022/08/11 01:14:08;;;;;;;3.6;3.3;;;;;;;16.02;53.8584;95715.64;;;;
2022/08/11 01:19:32;;;;;;;5.9;4.1;;;;;;;15.79;54.31152;95705.92;;;;
2022/08/11 01:20:54;;;;;;;5.9;4.1;;;;;;;15.79;54.31152;95705.92;;;;
2022/08/11 01:26:26;;;;;;;5.7;4.15;;;;;;;15.47;54.87402;95694.42;;;;
2022/08/11 01:28:01;;;;;;;5.7;4.15;;;;;;;15.47;54.87402;95694.42;;;;
2022/08/11 01:33:39;;;;;;;5.7;4.15;;;;;;;15.47;54.87402;95694.42;;;;
2022/08/11 01:39:07;;;;;;;4.950001;4.45;;;;;;;15.25;55.42773;95695.47;;;;
2022/08/11 01:44:36;;;;;;;4.950001;4.45;;;;;;;15.25;55.42773;95695.47;;;;
2022/08/11 01:46:02;;;;;;;4.950001;4.45;;;;;;;15.25;55.42773;95695.47;;;;
2022/08/11 01:47:49;;;;;;;4.400001;4;;;;;;;15.01;56.00879;95702.36;;;;
2022/08/11 01:49:01;;;;;;;4.400001;4;;;;;;;15.01;56.00879;95702.36;;;;
2022/08/11 01:50:11;;;;;;;4.400001;4;;;;;;;15.01;56.00879;95702.36;;;;
2022/08/11 01:51:20;;;;;;;4.400001;4;;;;;;;15.01;56.00879;95702.36;;;;
2022/08/11 01:52:33;;;;;;;4.400001;4;;;;;;;15.01;56.00879;95702.36;;;;
2022/08/11 01:53:47;;;;;;;4.400001;4;;;;;;;15.01;56.00879;95702.36;;;;
2022/08/11 01:54:55;;;;;;;4.400001;4;;;;;;;15.01;56.00879;95702.36;;;;
2022/08/11 01:56:08;;;;;;;4.400001;4;;;;;;;15.01;56.00879;95702.36;;;;
2022/08/11 01:57:32;;;;;;;6.1;4.5;;;;;;;14.89;56.49609;95694.84;;;;
2022/08/11 01:58:41;;;;;;;6.1;4.5;;;;;;;14.89;56.49609;95694.84;;;;
2022/08/11 01:59:48;;;;;;;6.1;4.5;;;;;;;14.89;56.49609;95694.84;;;;
2022/08/11 02:00:53;;;;;;;6.1;4.5;;;;;;;14.89;56.49609;95694.84;;;;
2022/08/11 02:02:09;;;;;;;6.1;4.5;;;;;;;14.89;56.49609;95694.84;;;;
2022/08/11 02:03:25;;;;;;;6.1;4.5;;;;;;;14.89;56.49609;95694.84;;;;
2022/08/11 02:04:33;;;;;;;6.1;4.5;;;;;;;14.89;56.49609;95694.84;;;;
2022/08/11 02:05:40;;;;;;;6.1;4.5;;;;;;;14.89;56.49609;95694.84;;;;
2022/08/11 02:06:55;;;;;;;6.1;4.5;;;;;;;14.89;56.49609;95694.84;;;;
2022/08/11 02:08:03;;;;;;;4.8;4.05;;;;;;;14.71;56.97559;95694.41;;;;
2022/08/11 02:09:13;;;;;;;4.8;4.05;;;;;;;14.71;56.97559;95694.41;;;;
2022/08/11 02:11:39;;;;;;;4.8;4.05;;;;;;;14.71;56.97559;95694.41;;;;
2022/08/11 02:12:44;;;;;;;4.8;4.05;;;;;;;14.71;56.97559;95694.41;;;;
2022/08/11 02:13:52;;;;;;;4.8;4.05;;;;;;;14.71;56.97559;95694.41;;;;
2022/08/11 02:15:17;;;;;;;4.8;4.05;;;;;;;14.71;56.97559;95694.41;;;;
2022/08/11 02:16:26;;;;;;;4.8;4.05;;;;;;;14.71;56.97559;95694.41;;;;
2022/08/11 02:17:37;;;;;;;4.8;4.05;;;;;;;14.71;56.97559;95694.41;;;;
2022/08/11 02:24:10;;;;;;;6.049999;4.55;;;;;;;14.58;57.43848;95689.26;;;;
2022/08/11 02:25:17;;;;;;;6.049999;4.55;;;;;;;14.58;57.43848;95689.26;;;;
2022/08/11 02:26:24;;;;;;;6.049999;4.55;;;;;;;14.58;57.43848;95689.26;;;;
2022/08/11 02:27:34;;;;;;;6.049999;4.55;;;;;;;14.58;57.43848;95689.26;;;;
2022/08/11 02:28:40;;;;;;;6.049999;4.55;;;;;;;14.58;57.43848;95689.26;;;;
2022/08/11 02:29:52;;;;;;;6.3;4.45;;;;;;;14.4;57.87305;95680.41;;;;
2022/08/11 02:33:21;;;;;;;6.3;4.45;;;;;;;14.4;57.87305;95680.41;;;;
2022/08/11 02:34:28;;;;;;;6.3;4.45;;;;;;;14.4;57.87305;95680.41;;;;
2022/08/11 02:35:44;;;;;;;6.3;4.45;;;;;;;14.4;57.87305;95680.41;;;;
2022/08/11 02:36:51;;;;;;;6.3;4.45;;;;;;;14.4;57.87305;95680.41;;;;
2022/08/11 02:38:02;;;;;;;6.3;4.45;;;;;;;14.4;57.87305;95680.41;;;;
2022/08/11 02:39:16;;;;;;;6.3;4.45;;;;;;;14.4;57.87305;95680.41;;;;
2022/08/11 02:40:20;;;;;;;5.45;4.95;;;;;;;14.27;58.31543;95683.25;;;;
2022/08/11 02:42:37;;;;;;;5.45;4.95;;;;;;;14.27;58.31543;95683.25;;;;
2022/08/11 02:43:48;;;;;;;5.45;4.95;;;;;;;14.27;58.31543;95683.25;;;;
2022/08/11 02:45:05;;;;;;;5.45;4.95;;;;;;;14.27;58.31543;95683.25;;;;
2022/08/11 02:46:18;;;;;;;5.45;4.95;;;;;;;14.27;58.31543;95683.25;;;;
2022/08/11 02:47:23;;;;;;;5.45;4.95;;;;;;;14.27;58.31543;95683.25;;;;
2022/08/11 02:53:58;;;;;;;5.699999;5.199999;;;;;;;14.05;58.77441;95682.17;;;;
2022/08/11 02:55:09;;;;;;;5.699999;5.199999;;;;;;;14.05;58.77441;95682.17;;;;
2022/08/11 02:56:21;;;;;;;5.699999;5.199999;;;;;;;14.05;58.77441;95682.17;;;;
2022/08/11 02:57:30;;;;;;;5.699999;5.199999;;;;;;;14.05;58.77441;95682.17;;;;
2022/08/11 02:58:38;;;;;;;5.699999;5.199999;;;;;;;14.05;58.77441;95682.17;;;;
2022/08/11 02:59:50;;;;;;;5.699999;5.199999;;;;;;;14.05;58.77441;95682.17;;;;
2022/08/11 03:00:56;;;;;;;5.699999;5.199999;;;;;;;14.05;58.77441;95682.17;;;;
2022/08/11 03:02:14;;;;;;;6.8;5.349999;;;;;;;13.88;59.28516;95688.2;;;;
2022/08/11 03:03:32;;;;;;;6.8;5.349999;;;;;;;13.88;59.28516;95688.2;;;;
2022/08/11 03:04:47;;;;;;;6.8;5.349999;;;;;;;13.88;59.28516;95688.2;;;;
2022/08/11 03:06:01;;;;;;;6.8;5.349999;;;;;;;13.88;59.28516;95688.2;;;;
2022/08/11 03:07:09;;;;;;;6.8;5.349999;;;;;;;13.88;59.28516;95688.2;;;;
2022/08/11 03:08:23;;;;;;;6.8;5.349999;;;;;;;13.88;59.28516;95688.2;;;;
2022/08/11 03:09:39;;;;;;;6.8;5.349999;;;;;;;13.88;59.28516;95688.2;;;;
2022/08/11 03:16:43;;;;;;;6.8;5.349999;;;;;;;13.88;59.28516;95688.2;;;;
2022/08/11 03:17:01;;;;;;;5.599999;5.099999;;;;;;;13.66;59.72461;95689.58;;;;
2022/08/11 03:18:15;;;;;;;5.599999;5.099999;;;;;;;13.66;59.72461;95689.58;;;;
2022/08/11 03:19:23;;;;;;;5.599999;5.099999;;;;;;;13.66;59.72461;95689.58;;;;
2022/08/11 03:20:33;;;;;;;5.599999;5.099999;;;;;;;13.66;59.72461;95689.58;;;;
2022/08/11 03:21:42;;;;;;;5.599999;5.099999;;;;;;;13.66;59.72461;95689.58;;;;
2022/08/11 03:22:51;;;;;;;6.099999;5.550001;;;;;;;13.54;60.14355;95688.67;;;;
2022/08/11 03:24:00;;;;;;;6.099999;5.550001;;;;;;;13.54;60.14355;95688.67;;;;
2022/08/11 03:25:08;;;;;;;6.099999;5.550001;;;;;;;13.54;60.14355;95688.67;;;;
2022/08/11 03:26:18;;;;;;;6.099999;5.550001;;;;;;;13.54;60.14355;95688.67;;;;
2022/08/11 03:27:25;;;;;;;6.099999;5.550001;;;;;;;13.54;60.14355;95688.67;;;;
2022/08/11 03:28:34;;;;;;;6.099999;5.550001;;;;;;;13.54;60.14355;95688.67;;;;
2022/08/11 03:29:43;;;;;;;6.099999;5.550001;;;;;;;13.54;60.14355;95688.67;;;;
2022/08/11 03:30:52;;;;;;;6.099999;5.550001;;;;;;;13.54;60.14355;95688.67;;;;
2022/08/11 03:32:05;;;;;;;6.099999;5.550001;;;;;;;13.54;60.14355;95688.67;;;;
2022/08/11 03:34:24;;;;;;;6.5;5.65;;;;;;;13.35;60.57422;95688.87;;;;
2022/08/11 03:35:26;;;;;;;6.5;5.65;;;;;;;13.35;60.57422;95688.87;;;;
2022/08/11 03:36:36;;;;;;;6.5;5.65;;;;;;;13.35;60.57422;95688.87;;;;
2022/08/11 03:37:58;;;;;;;6.5;5.65;;;;;;;13.35;60.57422;95688.87;;;;
2022/08/11 03:39:04;;;;;;;6.5;5.65;;;;;;;13.35;60.57422;95688.87;;;;
2022/08/11 03:40:16;;;;;;;6.5;5.65;;;;;;;13.35;60.57422;95688.87;;;;
2022/08/11 03:41:45;;;;;;;6.5;5.65;;;;;;;13.35;60.57422;95688.87;;;;
2022/08/11 03:43:00;;;;;;;6.5;5.65;;;;;;;13.35;60.57422;95688.87;;;;
2022/08/11 03:44:07;;;;;;;6.5;5.900001;;;;;;;13.24;60.9502;95685.1;;;;
2022/08/11 03:45:19;;;;;;;6.5;5.900001;;;;;;;13.24;60.9502;95685.1;;;;
2022/08/11 03:46:27;;;;;;;6.5;5.900001;;;;;;;13.24;60.9502;95685.1;;;;
2022/08/11 03:47:37;;;;;;;6.5;5.900001;;;;;;;13.24;60.9502;95685.1;;;;
2022/08/11 03:48:47;;;;;;;6.5;5.900001;;;;;;;13.24;60.9502;95685.1;;;;
2022/08/11 03:50:00;;;;;;;6.5;5.900001;;;;;;;13.24;60.9502;95685.1;;;;
2022/08/11 03:51:09;;;;;;;6.5;5.900001;;;;;;;13.24;60.9502;95685.1;;;;
2022/08/11 03:52:18;;;;;;;6.5;5.900001;;;;;;;13.24;60.9502;95685.1;;;;
2022/08/11 03:53:29;;;;;;;6.5;5.900001;;;;;;;13.24;60.9502;95685.1;;;;
2022/08/11 03:55:46;;;;;;;7.75;5.95;;;;;;;13.08;61.33008;95687.48;;;;
2022/08/11 03:57:12;;;;;;;7.75;5.95;;;;;;;13.08;61.33008;95687.48;;;;
2022/08/11 03:59:09;;;;;;;7.75;5.95;;;;;;;13.08;61.33008;95687.48;;;;
2022/08/11 04:00:30;;;;;;;7.75;5.95;;;;;;;13.08;61.33008;95687.48;;;;
2022/08/11 04:02:01;;;;;;;7.75;5.95;;;;;;;13.08;61.33008;95687.48;;;;
2022/08/11 04:03:31;;;;;;;7.75;5.95;;;;;;;13.08;61.33008;95687.48;;;;
2022/08/11 04:04:56;;;;;;;7.75;5.95;;;;;;;13.08;61.33008;95687.48;;;;
2022/08/11 04:06:26;;;;;;;6.749999;6.050001;;;;;;;13.01;61.65625;95684.06;;;;
2022/08/11 04:07:44;;;;;;;6.749999;6.050001;;;;;;;13.01;61.65625;95684.06;;;;
2022/08/11 04:09:12;;;;;;;6.749999;6.050001;;;;;;;13.01;61.65625;95684.06;;;;
2022/08/11 04:20:28;;;;;;;6.55;5.9;;;;;;;12.9;61.94434;95680.77;;;;
2022/08/11 04:21:48;;;;;;;6.55;5.9;;;;;;;12.9;61.94434;95680.77;;;;
2022/08/11 04:23:36;;;;;;;6.55;5.9;;;;;;;12.9;61.94434;95680.77;;;;
2022/08/11 04:25:57;;;;;;;6.55;5.9;;;;;;;12.9;61.94434;95680.77;;;;
2022/08/11 04:27:29;;;;;;;9.449999;6.299999;;;;;;;12.89;62.18164;95684.45;;;;
2022/08/11 04:32:49;;;;;;;9.449999;6.299999;;;;;;;12.89;62.18164;95684.45;;;;
2022/08/11 04:34:40;;;;;;;9.449999;6.299999;;;;;;;12.89;62.18164;95684.45;;;;
2022/08/11 04:35:54;;;;;;;9.449999;6.299999;;;;;;;12.89;62.18164;95684.45;;;;
2022/08/11 04:37:40;;;;;;;9.449999;6.299999;;;;;;;12.89;62.18164;95684.45;;;;
2022/08/11 04:39:00;;;;;;;6.299999;5.700001;;;;;;;12.84;62.49121;95685.08;;;;
2022/08/11 04:40:14;;;;;;;6.299999;5.700001;;;;;;;12.84;62.49121;95685.08;;;;
2022/08/11 04:43:19;;;;;;;6.299999;5.700001;;;;;;;12.84;62.49121;95685.08;;;;
2022/08/11 04:45:57;;;;;;;6.299999;5.700001;;;;;;;12.84;62.49121;95685.08;;;;
2022/08/11 05:05:51;;;;;;;7.25;6.400001;;;;;;;13;62.88184;95694.78;;;;
2022/08/11 05:07:09;;;;;;;7.25;6.400001;;;;;;;13;62.88184;95694.78;;;;
2022/08/11 05:08:43;;;;;;;7.25;6.400001;;;;;;;13;62.88184;95694.78;;;;
2022/08/11 05:10:20;;;;;;;7.6;6.6;;;;;;;13.22;63.05566;95700.43;;;;
2022/08/11 05:11:37;;;;;;;7.6;6.6;;;;;;;13.22;63.05566;95700.43;;;;
2022/08/11 05:34:59;;;;;;;7.649999;6.35;;;;;;;13.92;63.14453;95699.1;;;;
2022/08/11 05:36:04;;;;;;;7.649999;6.35;;;;;;;13.92;63.14453;95699.1;;;;
2022/08/11 05:37:11;;;;;;;7.649999;6.35;;;;;;;13.92;63.14453;95699.1;;;;
2022/08/11 05:59:13;;;;;;;7.449999;5.65;;;;;;;15.2;62.71777;95683.91;;;;
2022/08/11 06:00:16;;;;;;;7.449999;5.65;;;;;;;15.2;62.71777;95683.91;;;;
2022/08/11 06:01:18;;;;;;;7.449999;5.65;;;;;;;15.2;62.71777;95683.91;;;;
2022/08/11 06:02:23;;;;;;;7.449999;5.65;;;;;;;15.2;62.71777;95683.91;;;;
2022/08/11 06:03:24;;;;;;;7.449999;5.65;;;;;;;15.2;62.71777;95683.91;;;;
2022/08/11 06:04:29;;;;;;;7.449999;5.65;;;;;;;15.2;62.71777;95683.91;;;;
2022/08/11 06:05:30;;;;;;;7.449999;5.65;;;;;;;15.2;62.71777;95683.91;;;;
2022/08/11 06:06:33;;;;;;;7.449999;5.65;;;;;;;15.2;62.71777;95683.91;;;;
2022/08/11 06:07:36;;;;;;;7.449999;5.65;;;;;;;15.2;62.71777;95683.91;;;;
2022/08/11 06:08:37;;;;;;;7.449999;5.65;;;;;;;15.2;62.71777;95683.91;;;;
2022/08/11 06:09:38;;;;;;;7.449999;5.65;;;;;;;15.2;62.71777;95683.91;;;;
2022/08/11 06:10:48;;;;;;;7.449999;5.65;;;;;;;15.2;62.71777;95683.91;;;;
2022/08/11 06:11:48;;;;;;;7.449999;5.65;;;;;;;15.2;62.71777;95683.91;;;;
2022/08/11 06:12:50;;;;;;;7.449999;5.65;;;;;;;15.2;62.71777;95683.91;;;;
2022/08/11 06:13:53;;;;;;;10.05;5.8;;;;;;;16.55;61.8584;95687;;;;
2022/08/11 06:14:55;;;;;;;10.05;5.8;;;;;;;16.55;61.8584;95687;;;;
2022/08/11 06:16:00;;;;;;;10.05;5.8;;;;;;;16.55;61.8584;95687;;;;
2022/08/11 06:17:01;;;;;;;10.05;5.8;;;;;;;16.55;61.8584;95687;;;;
2022/08/11 06:18:03;;;;;;;10.05;5.8;;;;;;;16.55;61.8584;95687;;;;
2022/08/11 06:19:04;;;;;;;10.05;5.8;;;;;;;16.55;61.8584;95687;;;;
2022/08/11 06:20:05;;;;;;;10.05;5.8;;;;;;;16.55;61.8584;95687;;;;
2022/08/11 06:21:08;;;;;;;10.05;5.8;;;;;;;16.55;61.8584;95687;;;;
2022/08/11 06:22:11;;;;;;;10.05;5.8;;;;;;;16.55;61.8584;95687;;;;
2022/08/11 06:23:14;;;;;;;10.05;5.8;;;;;;;16.55;61.8584;95687;;;;
2022/08/11 06:24:15;;;;;;;5.95;5.3;;;;;;;17.23;61.18555;95688.03;;;;
2022/08/11 06:25:17;;;;;;;5.95;5.3;;;;;;;17.23;61.18555;95688.03;;;;
2022/08/11 06:26:19;;;;;;;5.95;5.3;;;;;;;17.23;61.18555;95688.03;;;;
2022/08/11 06:27:20;;;;;;;5.95;5.3;;;;;;;17.23;61.18555;95688.03;;;;
2022/08/11 06:28:22;;;;;;;5.95;5.3;;;;;;;17.23;61.18555;95688.03;;;;
2022/08/11 06:29:30;;;;;;;5.95;5.3;;;;;;;17.23;61.18555;95688.03;;;;
2022/08/11 06:30:33;;;;;;;5.95;5.3;;;;;;;17.23;61.18555;95688.03;;;;
2022/08/11 06:31:37;;;;;;;5.95;5.3;;;;;;;17.23;61.18555;95688.03;;;;
2022/08/11 06:32:38;;;;;;;5.95;5.3;;;;;;;17.23;61.18555;95688.03;;;;
2022/08/11 06:33:42;;;;;;;5.95;5.3;;;;;;;17.23;61.18555;95688.03;;;;
2022/08/11 06:34:54;;;;;;;8.349999;4.95;;;;;;;18.05;60.38672;95680.98;;;;
2022/08/11 06:36:06;;;;;;;8.349999;4.95;;;;;;;18.05;60.38672;95680.98;;;;
2022/08/11 06:37:15;;;;;;;8.349999;4.95;;;;;;;18.05;60.38672;95680.98;;;;
2022/08/11 06:38:23;;;;;;;8.349999;4.95;;;;;;;18.05;60.38672;95680.98;;;;
2022/08/11 06:39:43;;;;;;;8.349999;4.95;;;;;;;18.05;60.38672;95680.98;;;;
2022/08/11 06:41:29;;;;;;;8.349999;4.95;;;;;;;18.05;60.38672;95680.98;;;;
2022/08/11 06:42:36;;;;;;;8.349999;4.95;;;;;;;18.05;60.38672;95680.98;;;;
2022/08/11 06:43:49;;;;;;;8.349999;4.95;;;;;;;18.05;60.38672;95680.98;;;;
2022/08/11 06:44:53;;;;;;;8.349999;4.95;;;;;;;18.05;60.38672;95680.98;;;;
2022/08/11 06:46:03;;;;;;;5.6;5;;;;;;;20.36;57.03125;95687.08;;;;
2022/08/11 06:47:08;;;;;;;5.6;5;;;;;;;20.36;57.03125;95687.08;;;;
2022/08/11 06:48:12;;;;;;;5.6;5;;;;;;;20.36;57.03125;95687.08;;;;
2022/08/11 06:54:32;;;;;;;5.6;5;;;;;;;20.36;57.03125;95687.08;;;;
2022/08/11 07:00:52;;;;;;;6.85;4.900001;;;;;;;22.86;53.08887;95681.67;;;;
2022/08/11 07:01:56;;;;;;;6.85;4.900001;;;;;;;22.86;53.08887;95681.67;;;;
2022/08/11 07:03:07;;;;;;;6.85;4.900001;;;;;;;22.86;53.08887;95681.67;;;;
2022/08/11 07:04:10;;;;;;;6.85;4.900001;;;;;;;22.86;53.08887;95681.67;;;;
2022/08/11 07:05:14;;;;;;;6.85;4.900001;;;;;;;22.86;53.08887;95681.67;;;;
2022/08/11 07:06:21;;;;;;;6.85;4.900001;;;;;;;22.86;53.08887;95681.67;;;;
2022/08/11 07:28:54;;;;;;;6.199999;4.400001;;;;;;;25.37;49.0498;95682.35;;;;
2022/08/11 07:29:56;;;;;;;6.199999;4.400001;;;;;;;25.37;49.0498;95682.35;;;;
2022/08/11 07:31:01;;;;;;;6.199999;4.400001;;;;;;;25.37;49.0498;95682.35;;;;
2022/08/11 07:32:07;;;;;;;6.199999;4.400001;;;;;;;25.37;49.0498;95682.35;;;;
2022/08/11 07:33:14;;;;;;;6.199999;4.400001;;;;;;;25.37;49.0498;95682.35;;;;
2022/08/11 07:34:21;;;;;;;6.199999;4.400001;;;;;;;25.37;49.0498;95682.35;;;;
2022/08/11 07:35:26;;;;;;;6.199999;4.400001;;;;;;;25.37;49.0498;95682.35;;;;
2022/08/11 07:36:34;;;;;;;6.199999;4.400001;;;;;;;25.37;49.0498;95682.35;;;;
2022/08/11 07:37:39;;;;;;;6.199999;4.400001;;;;;;;25.37;49.0498;95682.35;;;;
2022/08/11 07:38:42;;;;;;;6.199999;4.400001;;;;;;;25.37;49.0498;95682.35;;;;
2022/08/11 07:39:46;;;;;;;5.5;4.299999;;;;;;;27.01;45.99805;95655.91;;;;
2022/08/11 07:40:48;;;;;;;5.5;4.299999;;;;;;;27.01;45.99805;95655.91;;;;
2022/08/11 07:41:50;;;;;;;5.5;4.299999;;;;;;;27.01;45.99805;95655.91;;;;
2022/08/11 07:42:52;;;;;;;5.5;4.299999;;;;;;;27.01;45.99805;95655.91;;;;
2022/08/11 07:43:55;;;;;;;5.5;4.299999;;;;;;;27.01;45.99805;95655.91;;;;
2022/08/11 07:55:24;;;;;;;5.05;4.3;;;;;;;27.04;45.57324;95659.37;;;;
2022/08/11 07:56:25;;;;;;;5.05;4.3;;;;;;;27.04;45.57324;95659.37;;;;
2022/08/11 08:18:14;;;;;;;4.8;4.3;;;;;;;26.81;45.77539;95656.38;;;;
2022/08/11 08:19:14;;;;;;;4.8;4.3;;;;;;;26.81;45.77539;95656.38;;;;
2022/08/11 08:20:18;;;;;;;4.8;4.3;;;;;;;26.81;45.77539;95656.38;;;;
2022/08/11 08:21:22;;;;;;;4.8;4.3;;;;;;;26.81;45.77539;95656.38;;;;
2022/08/11 08:22:22;;;;;;;5.05;4.55;;;;;;;26.69;45.26758;95660.16;;;;
2022/08/11 08:23:31;;;;;;;5.05;4.55;;;;;;;26.69;45.26758;95660.16;;;;
2022/08/11 08:24:32;;;;;;;5.05;4.55;;;;;;;26.69;45.26758;95660.16;;;;
2022/08/11 08:25:33;;;;;;;5.05;4.55;;;;;;;26.69;45.26758;95660.16;;;;
2022/08/11 08:27:11;;;;;;;5.05;4.55;;;;;;;26.69;45.26758;95660.16;;;;
2022/08/11 08:28:13;;;;;;;5.05;4.55;;;;;;;26.69;45.26758;95660.16;;;;
2022/08/11 08:34:29;;;;;;;5.05;4.55;;;;;;;26.69;45.26758;95660.16;;;;
2022/08/11 08:35:30;;;;;;;5.05;4.55;;;;;;;26.69;45.26758;95660.16;;;;
2022/08/11 08:36:31;;;;;;;5.05;4.55;;;;;;;26.69;45.26758;95660.16;;;;
2022/08/11 08:37:32;;;;;;;5.05;4.55;;;;;;;26.69;45.26758;95660.16;;;;
2022/08/11 08:38:33;;;;;;;5.05;4.55;;;;;;;26.69;45.26758;95660.16;;;;
2022/08/11 08:39:36;;;;;;;5.05;4.55;;;;;;;26.69;45.26758;95660.16;;;;
2022/08/11 08:40:37;;;;;;;5.05;4.55;;;;;;;26.69;45.26758;95660.16;;;;
2022/08/11 08:41:41;;;;;;;5.05;4.55;;;;;;;26.69;45.26758;95660.16;;;;
2022/08/11 08:42:42;;;;;;;5.05;4.55;;;;;;;26.69;45.26758;95660.16;;;;
2022/08/11 08:43:48;;;;;;;5.199999;4.7;;;;;;;31.04;40.17676;95661.55;;;;
2022/08/11 08:44:52;;;;;;;5.199999;4.7;;;;;;;31.04;40.17676;95661.55;;;;
2022/08/11 08:46:01;;;;;;;5.199999;4.7;;;;;;;31.04;40.17676;95661.55;;;;
2022/08/11 08:47:04;;;;;;;5.199999;4.7;;;;;;;31.04;40.17676;95661.55;;;;
2022/08/11 08:48:07;;;;;;;5.199999;4.7;;;;;;;31.04;40.17676;95661.55;;;;
2022/08/11 08:49:11;;;;;;;5.199999;4.7;;;;;;;31.04;40.17676;95661.55;;;;
2022/08/11 08:50:18;;;;;;;5.199999;4.7;;;;;;;31.04;40.17676;95661.55;;;;
2022/08/11 08:51:38;;;;;;;5.199999;4.7;;;;;;;31.04;40.17676;95661.55;;;;
2022/08/11 08:52:40;;;;;;;5.199999;4.7;;;;;;;31.04;40.17676;95661.55;;;;
2022/08/11 08:53:46;;;;;;;4.75;4.3;;;;;;;34.57;35.31055;95656.23;;;;
2022/08/11 08:54:52;;;;;;;4.75;4.3;;;;;;;34.57;35.31055;95656.23;;;;
2022/08/11 08:55:57;;;;;;;4.75;4.3;;;;;;;34.57;35.31055;95656.23;;;;
2022/08/11 08:57:03;;;;;;;4.75;4.3;;;;;;;34.57;35.31055;95656.23;;;;
2022/08/11 08:58:06;;;;;;;4.75;4.3;;;;;;;34.57;35.31055;95656.23;;;;
2022/08/11 08:59:08;;;;;;;4.75;4.3;;;;;;;34.57;35.31055;95656.23;;;;
2022/08/11 09:00:12;;;;;;;4.75;4.3;;;;;;;34.57;35.31055;95656.23;;;;
2022/08/11 09:01:15;;;;;;;4.75;4.3;;;;;;;34.57;35.31055;95656.23;;;;
2022/08/11 09:02:19;;;;;;;4.75;4.3;;;;;;;34.57;35.31055;95656.23;;;;
2022/08/11 09:03:26;;;;;;;4.75;4.3;;;;;;;34.57;35.31055;95656.23;;;;
2022/08/11 09:04:27;;;;;;;4.900001;4.400001;;;;;;;36.02;33.55371;95647.91;;;;
2022/08/11 09:05:29;;;;;;;4.900001;4.400001;;;;;;;36.02;33.55371;95647.91;;;;
2022/08/11 09:06:30;;;;;;;4.900001;4.400001;;;;;;;36.02;33.55371;95647.91;;;;
2022/08/11 09:07:32;;;;;;;4.900001;4.400001;;;;;;;36.02;33.55371;95647.91;;;;
2022/08/11 09:08:34;;;;;;;4.900001;4.400001;;;;;;;36.02;33.55371;95647.91;;;;
2022/08/11 09:09:35;;;;;;;4.900001;4.400001;;;;;;;36.02;33.55371;95647.91;;;;
2022/08/11 09:10:36;;;;;;;4.900001;4.400001;;;;;;;36.02;33.55371;95647.91;;;;
2022/08/11 09:11:52;;;;;;;4.900001;4.400001;;;;;;;36.02;33.55371;95647.91;;;;
2022/08/11 09:12:54;;;;;;;4.900001;4.400001;;;;;;;36.02;33.55371;95647.91;;;;
2022/08/11 09:13:54;;;;;;;4.900001;4.400001;;;;;;;36.02;33.55371;95647.91;;;;
2022/08/11 09:15:03;;;;;;;6.15;4.6;;;;;;;37.43;31.56348;95646.95;;;;
2022/08/11 09:16:05;;;;;;;6.15;4.6;;;;;;;37.43;31.56348;95646.95;;;;
2022/08/11 09:17:09;;;;;;;6.15;4.6;;;;;;;37.43;31.56348;95646.95;;;;
2022/08/11 09:18:10;;;;;;;6.15;4.6;;;;;;;37.43;31.56348;95646.95;;;;
2022/08/11 09:19:12;;;;;;;6.15;4.6;;;;;;;37.43;31.56348;95646.95;;;;
2022/08/11 09:20:14;;;;;;;6.15;4.6;;;;;;;37.43;31.56348;95646.95;;;;
2022/08/11 09:21:21;;;;;;;6.15;4.6;;;;;;;37.43;31.56348;95646.95;;;;
2022/08/11 09:27:37;;;;;;;5.449999;4.400001;;;;;;;40.08;28.98438;95635.99;;;;
2022/08/11 09:28:38;;;;;;;5.449999;4.400001;;;;;;;40.08;28.98438;95635.99;;;;
2022/08/11 09:29:42;;;;;;;5.449999;4.400001;;;;;;;40.08;28.98438;95635.99;;;;
2022/08/11 09:30:43;;;;;;;5.449999;4.400001;;;;;;;40.08;28.98438;95635.99;;;;
2022/08/11 09:31:46;;;;;;;5.449999;4.400001;;;;;;;40.08;28.98438;95635.99;;;;
2022/08/11 09:32:47;;;;;;;5.449999;4.400001;;;;;;;40.08;28.98438;95635.99;;;;
2022/08/11 09:33:48;;;;;;;5.449999;4.400001;;;;;;;40.08;28.98438;95635.99;;;;
2022/08/11 09:34:52;;;;;;;5.449999;4.400001;;;;;;;40.08;28.98438;95635.99;;;;
2022/08/11 09:35:53;;;;;;;5.449999;4.400001;;;;;;;40.08;28.98438;95635.99;;;;
2022/08/11 09:42:08;;;;;;;4.400001;4;;;;;;;41.56;27.17188;95638.25;;;;
2022/08/11 09:48:28;;;;;;;4.900001;3.8;;;;;;;42.33;25.50586;95651.03;;;;
2022/08/11 09:49:34;;;;;;;4.900001;3.8;;;;;;;42.33;25.50586;95651.03;;;;
2022/08/11 09:50:38;;;;;;;4.900001;3.8;;;;;;;42.33;25.50586;95651.03;;;;
2022/08/11 09:51:39;;;;;;;4.900001;3.8;;;;;;;42.33;25.50586;95651.03;;;;
2022/08/11 09:52:41;;;;;;;4.900001;3.8;;;;;;;42.33;25.50586;95651.03;;;;
2022/08/11 09:53:44;;;;;;;4.900001;3.8;;;;;;;42.33;25.50586;95651.03;;;;
2022/08/11 09:54:45;;;;;;;4.900001;3.8;;;;;;;42.33;25.50586;95651.03;;;;
2022/08/11 09:55:48;;;;;;;4.900001;3.8;;;;;;;42.33;25.50586;95651.03;;;;
2022/08/11 10:02:04;;;;;;;4.500001;3.9;;;;;;;42.72;24.29688;95642.83;;;;
2022/08/11 10:03:08;;;;;;;4.500001;3.9;;;;;;;42.72;24.29688;95642.83;;;;
2022/08/11 10:04:14;;;;;;;4.500001;3.9;;;;;;;42.72;24.29688;95642.83;;;;